Time;durP1;ratioP1;P1;durP2;ratioP2;P2;SDS_P1;SDS_P2;PMS_P1;PMS_P2;Temp;Humidity;BMP_temperature;BMP_pressure;BME280_temperature;BME280_humidity;BME280_pressure;Samples;Min_cycle;Max_cycle;Signal;HPM_P1;HPM_P2
2024/03/30 00:00:24;;;;;;;;;;;;;;;;;;5079235;28;20001;-55
2024/03/30 00:02:50;;;;;;;;;;;;;;;;;;5081823;28;20461;-54
2024/03/30 00:05:16;;;;;;;;;;;;;;;;;;5080385;28;20398;-54
2024/03/30 00:07:44;;;;;;;;;;;;;;;;;;5079834;28;19948;-54
2024/03/30 00:10:10;;;;;;;;;;;;;;;;;;5086336;28;20406;-52
2024/03/30 00:12:36;;;;;;;;;;;;;;;;;;5086209;28;19956;-53
2024/03/30 00:15:02;;;;;;;;;;;;;;;;;;5082204;28;19964;-52
2024/03/30 00:17:28;;;;;;;;;;;;;;;;;;5084357;28;20064;-52
2024/03/30 00:19:54;;;;;;;;;;;;;;;;;;5081309;28;20002;-52
2024/03/30 00:22:20;;;;;;;;;;;;;;;;;;5086319;28;20005;-52
2024/03/30 00:24:46;;;;;;;;;;;;;;;;;;5090460;28;19970;-52
2024/03/30 00:27:12;;;;;;;;;;;;;;;;;;5076651;28;19959;-52
2024/03/30 00:29:38;;;;;;;;;;;;;;;;;;5082220;28;20371;-51
2024/03/30 00:32:04;;;;;;;;;;;;;;;;;;5080154;28;19919;-52
2024/03/30 00:34:30;;;;;;;;;;;;;;;;;;5085435;28;19981;-52
2024/03/30 00:36:55;;;;;;;;;;;;;;;;;;5082384;28;20297;-51
2024/03/30 00:39:21;;;;;;;;;;;;;;;;;;5085915;28;20347;-52
2024/03/30 00:41:47;;;;;;;;;;;;;;;;;;5085951;28;20363;-52
2024/03/30 00:44:13;;;;;;;;;;;;;;;;;;5083419;28;19951;-52
2024/03/30 00:46:39;;;;;;;;;;;;;;;;;;5080255;28;19909;-52
2024/03/30 00:49:05;;;;;;;;;;;;;;;;;;5083714;28;19985;-52
2024/03/30 00:51:31;;;;;;;;;;;;;;;;;;5085693;28;19950;-51
2024/03/30 00:53:57;;;;;;;;;;;;;;;;;;5085108;28;20371;-52
2024/03/30 00:56:26;;;;;;;;;;;;;;;;;;5083722;28;19912;-52
2024/03/30 00:58:52;;;;;;;;;;;;;;;;;;5081130;28;19916;-52
2024/03/30 01:01:18;;;;;;;;;;;;;;;;;;5085713;28;19970;-52
2024/03/30 01:03:44;;;;;;;;;;;;;;;;;;5079478;28;20303;-53
2024/03/30 01:06:10;;;;;;;;;;;;;;;;;;5078010;28;20003;-51
2024/03/30 01:08:35;;;;;;;;;;;;;;;;;;5082508;28;19947;-52
2024/03/30 01:11:01;;;;;;;;;;;;;;;;;;5079950;28;20033;-53
2024/03/30 01:13:29;;;;;;;;;;;;;;;;;;5081149;28;19959;-52
2024/03/30 01:15:55;;;;;;;;;;;;;;;;;;5081420;28;20331;-52
2024/03/30 01:18:21;;;;;;;;;;;;;;;;;;5083935;28;19961;-52
2024/03/30 01:20:50;;;;;;;;;;;;;;;;;;5087465;28;20633;-53
2024/03/30 01:23:16;;;;;;;;;;;;;;;;;;5080674;28;19927;-53
2024/03/30 01:25:42;;;;;;;;;;;;;;;;;;5081262;28;19967;-54
2024/03/30 01:28:08;;;;;;;;;;;;;;;;;;5078920;28;19948;-53
2024/03/30 01:30:34;;;;;;;;;;;;;;;;;;5081059;28;19923;-54
2024/03/30 01:33:00;;;;;;;;;;;;;;;;;;5084320;28;20626;-53
2024/03/30 01:35:26;;;;;;;;;;;;;;;;;;5078175;28;20244;-53
2024/03/30 01:37:52;;;;;;;;;;;;;;;;;;5079548;28;19944;-53
2024/03/30 01:40:19;;;;;;;;;;;;;;;;;;5085938;28;19971;-53
2024/03/30 01:42:45;;;;;;;;;;;;;;;;;;5083034;28;19920;-53
2024/03/30 01:45:11;;;;;;;;;;;;;;;;;;5080673;28;20376;-53
2024/03/30 01:47:37;;;;;;;;;;;;;;;;;;5085585;28;19947;-54
2024/03/30 01:50:03;;;;;;;;;;;;;;;;;;5081325;28;19982;-53
2024/03/30 01:52:29;;;;;;;;;;;;;;;;;;5081388;28;19960;-53
2024/03/30 01:54:55;;;;;;;;;;;;;;;;;;5083464;28;20434;-53
2024/03/30 01:57:21;;;;;;;;;;;;;;;;;;5086922;28;20762;-54
2024/03/30 01:59:47;;;;;;;;;;;;;;;;;;5081755;28;20001;-53
2024/03/30 02:02:13;;;;;;;;;;;;;;;;;;5077094;28;19968;-53
2024/03/30 02:04:39;;;;;;;;;;;;;;;;;;5077773;28;19966;-53
2024/03/30 02:07:05;;;;;;;;;;;;;;;;;;5079307;28;19912;-53
2024/03/30 02:09:31;;;;;;;;;;;;;;;;;;5083421;28;19927;-53
2024/03/30 02:11:57;;;;;;;;;;;;;;;;;;5080052;28;19951;-53
2024/03/30 02:14:23;;;;;;;;;;;;;;;;;;5083597;28;20446;-53
2024/03/30 02:16:48;;;;;;;;;;;;;;;;;;5083208;28;20387;-53
2024/03/30 02:19:14;;;;;;;;;;;;;;;;;;5084851;28;19926;-53
2024/03/30 02:21:40;;;;;;;;;;;;;;;;;;5086726;28;19916;-53
2024/03/30 02:24:06;;;;;;;;;;;;;;;;;;5078109;28;19969;-53
2024/03/30 02:26:32;;;;;;;;;;;;;;;;;;5079535;28;19952;-54
2024/03/30 02:28:58;;;;;;;;;;;;;;;;;;5079320;28;20358;-53
2024/03/30 02:31:24;;;;;;;;;;;;;;;;;;5077853;28;19916;-52
2024/03/30 02:33:50;;;;;;;;;;;;;;;;;;5079344;28;19913;-52
2024/03/30 02:36:16;;;;;;;;;;;;;;;;;;5082249;28;20015;-51
2024/03/30 02:38:42;;;;;;;;;;;;;;;;;;5080792;28;19963;-52
2024/03/30 02:41:08;;;;;;;;;;;;;;;;;;5081195;28;19952;-52
2024/03/30 02:43:34;;;;;;;;;;;;;;;;;;5080372;28;19963;-52
2024/03/30 02:46:01;;;;;;;;;;;;;;;;;;5082669;28;19962;-52
2024/03/30 02:48:26;;;;;;;;;;;;;;;;;;5080731;28;19920;-52
2024/03/30 02:50:52;;;;;;;;;;;;;;;;;;5085393;28;20388;-51
2024/03/30 02:53:18;;;;;;;;;;;;;;;;;;5078890;28;20391;-52
2024/03/30 02:55:44;;;;;;;;;;;;;;;;;;5077869;28;20332;-52
2024/03/30 02:58:10;;;;;;;;;;;;;;;;;;5074943;28;19974;-52
2024/03/30 03:00:36;;;;;;;;;;;;;;;;;;5082141;28;19955;-52
2024/03/30 03:03:02;;;;;;;;;;;;;;;;;;5076677;28;19955;-52
2024/03/30 03:05:28;;;;;;;;;;;;;;;;;;5079189;28;19963;-52
2024/03/30 03:07:54;;;;;;;;;;;;;;;;;;5079969;28;19963;-51
2024/03/30 03:10:20;;;;;;;;;;;;;;;;;;5075400;28;19955;-51
2024/03/30 03:12:46;;;;;;;;;;;;;;;;;;5080005;28;19963;-51
2024/03/30 03:15:12;;;;;;;;;;;;;;;;;;5076479;28;20279;-52
2024/03/30 03:17:38;;;;;;;;;;;;;;;;;;5081433;28;19913;-52
2024/03/30 03:20:05;;;;;;;;;;;;;;;;;;5078125;28;20306;-52
2024/03/30 03:22:31;;;;;;;;;;;;;;;;;;5082692;28;19966;-52
2024/03/30 03:24:57;;;;;;;;;;;;;;;;;;5078717;28;19955;-51
2024/03/30 03:27:23;;;;;;;;;;;;;;;;;;5080498;28;19916;-51
2024/03/30 03:29:49;;;;;;;;;;;;;;;;;;5077850;28;20332;-52
2024/03/30 03:32:15;;;;;;;;;;;;;;;;;;5082173;28;19912;-52
2024/03/30 03:34:41;;;;;;;;;;;;;;;;;;5081800;28;19922;-52
2024/03/30 03:37:07;;;;;;;;;;;;;;;;;;5079286;28;19966;-52
2024/03/30 03:39:33;;;;;;;;;;;;;;;;;;5081118;28;20324;-52
2024/03/30 03:41:59;;;;;;;;;;;;;;;;;;5080133;28;20371;-50
2024/03/30 03:44:25;;;;;;;;;;;;;;;;;;5077876;28;20384;-52
2024/03/30 03:46:51;;;;;;;;;;;;;;;;;;5084780;28;20272;-50
2024/03/30 03:49:16;;;;;;;;;;;;;;;;;;5083416;28;19963;-51
2024/03/30 03:51:42;;;;;;;;;;;;;;;;;;5088802;28;19922;-50
2024/03/30 03:54:08;;;;;;;;;;;;;;;;;;5085350;28;20002;-50
2024/03/30 03:56:34;;;;;;;;;;;;;;;;;;5082878;28;19956;-50
2024/03/30 03:59:00;;;;;;;;;;;;;;;;;;5086958;28;19951;-50
2024/03/30 04:01:26;;;;;;;;;;;;;;;;;;5083326;28;19943;-50
2024/03/30 04:03:52;;;;;;;;;;;;;;;;;;5084443;28;19963;-50
2024/03/30 04:06:18;;;;;;;;;;;;;;;;;;5084638;28;20331;-50
2024/03/30 04:08:44;;;;;;;;;;;;;;;;;;5089005;28;20398;-51
2024/03/30 04:11:10;;;;;;;;;;;;;;;;;;5087517;28;19959;-51
2024/03/30 04:13:36;;;;;;;;;;;;;;;;;;5083928;28;19993;-51
2024/03/30 04:16:02;;;;;;;;;;;;;;;;;;5081728;28;19944;-50
2024/03/30 04:18:28;;;;;;;;;;;;;;;;;;5082108;28;19974;-50
2024/03/30 04:20:54;;;;;;;;;;;;;;;;;;5085904;28;20327;-51
2024/03/30 04:23:20;;;;;;;;;;;;;;;;;;5085973;28;20050;-51
2024/03/30 04:25:46;;;;;;;;;;;;;;;;;;5085313;28;20019;-50
2024/03/30 04:28:12;;;;;;;;;;;;;;;;;;5085571;28;19959;-51
2024/03/30 04:30:38;;;;;;;;;;;;;;;;;;5082670;28;20371;-51
2024/03/30 04:33:04;;;;;;;;;;;;;;;;;;5083256;28;20410;-51
2024/03/30 04:35:30;;;;;;;;;;;;;;;;;;5084740;28;19920;-50
2024/03/30 04:37:56;;;;;;;;;;;;;;;;;;5084228;28;20424;-50
2024/03/30 04:40:26;;;;;;;;;;;;;;;;;;5082428;28;19947;-52
2024/03/30 04:42:52;;;;;;;;;;;;;;;;;;5084439;28;19912;-50
2024/03/30 04:45:18;;;;;;;;;;;;;;;;;;5087730;28;19920;-50
2024/03/30 04:47:44;;;;;;;;;;;;;;;;;;5081050;28;19924;-51
2024/03/30 04:50:10;;;;;;;;;;;;;;;;;;5083181;28;20431;-50
2024/03/30 04:52:36;;;;;;;;;;;;;;;;;;5082344;28;19959;-53
2024/03/30 04:55:02;;;;;;;;;;;;;;;;;;5089268;28;19964;-53
2024/03/30 04:57:28;;;;;;;;;;;;;;;;;;5078641;28;19947;-53
2024/03/30 04:59:53;;;;;;;;;;;;;;;;;;5082353;28;19960;-53
2024/03/30 05:02:19;;;;;;;;;;;;;;;;;;5082919;28;19962;-53
2024/03/30 05:04:45;;;;;;;;;;;;;;;;;;5084174;28;19951;-53
2024/03/30 05:07:11;;;;;;;;;;;;;;;;;;5084111;28;19974;-53
2024/03/30 05:09:37;;;;;;;;;;;;;;;;;;5081987;28;20351;-53
2024/03/30 05:12:03;;;;;;;;;;;;;;;;;;5079166;28;20387;-53
2024/03/30 05:14:29;;;;;;;;;;;;;;;;;;5080612;28;19963;-53
2024/03/30 05:16:55;;;;;;;;;;;;;;;;;;5078699;28;20308;-52
2024/03/30 05:22:05;;;;;;;;;;;;;;;;;;5077560;28;19990;-53
2024/03/30 05:24:31;;;;;;;;;;;;;;;;;;5075412;28;20390;-54
2024/03/30 05:26:57;;;;;;;;;;;;;;;;;;5078390;28;19978;-53
2024/03/30 05:29:23;;;;;;;;;;;;;;;;;;5081366;28;20007;-53
2024/03/30 05:31:49;;;;;;;;;;;;;;;;;;5076016;28;19960;-53
2024/03/30 05:34:15;;;;;;;;;;;;;;;;;;5087743;28;19951;-53
2024/03/30 05:36:41;;;;;;;;;;;;;;;;;;5080331;28;19979;-53
2024/03/30 05:39:07;;;;;;;;;;;;;;;;;;5078872;28;20000;-53
2024/03/30 05:41:33;;;;;;;;;;;;;;;;;;5078566;28;20381;-52
2024/03/30 05:43:59;;;;;;;;;;;;;;;;;;5077678;28;20356;-52
2024/03/30 05:46:25;;;;;;;;;;;;;;;;;;5080040;28;19985;-53
2024/03/30 05:48:51;;;;;;;;;;;;;;;;;;5081365;28;19916;-53
2024/03/30 05:51:17;;;;;;;;;;;;;;;;;;5081058;28;20287;-52
2024/03/30 05:53:46;;;;;;;;;;;;;;;;;;5083225;28;19913;-53
2024/03/30 05:56:12;;;;;;;;;;;;;;;;;;5083139;28;20363;-53
2024/03/30 05:58:38;;;;;;;;;;;;;;;;;;5079910;28;19919;-52
2024/03/30 06:01:04;;;;;;;;;;;;;;;;;;5082512;28;19955;-51
2024/03/30 06:03:30;;;;;;;;;;;;;;;;;;5083264;28;19963;-52
2024/03/30 06:05:56;;;;;;;;;;;;;;;;;;5077443;28;19996;-53
2024/03/30 06:08:22;;;;;;;;;;;;;;;;;;5074733;28;19955;-53
2024/03/30 06:10:48;;;;;;;;;;;;;;;;;;5081014;28;19951;-52
2024/03/30 06:13:14;;;;;;;;;;;;;;;;;;5083319;28;19947;-53
2024/03/30 06:15:39;;;;;;;;;;;;;;;;;;5078269;28;19944;-52
2024/03/30 06:18:05;;;;;;;;;;;;;;;;;;5086097;28;20316;-52
2024/03/30 06:20:31;;;;;;;;;;;;;;;;;;5079635;28;19958;-52
2024/03/30 06:22:57;;;;;;;;;;;;;;;;;;5077127;28;20002;-52
2024/03/30 06:25:23;;;;;;;;;;;;;;;;;;5081102;28;19971;-52
2024/03/30 06:27:49;;;;;;;;;;;;;;;;;;5078737;28;20049;-52
2024/03/30 06:30:16;;;;;;;;;;;;;;;;;;5083584;28;19959;-52
2024/03/30 06:32:42;;;;;;;;;;;;;;;;;;5078102;28;20271;-53
2024/03/30 06:35:08;;;;;;;;;;;;;;;;;;5083563;28;20067;-52
2024/03/30 06:37:34;;;;;;;;;;;;;;;;;;5081916;28;19999;-52
2024/03/30 06:45:49;;;;;;;;;;;;;;;;;;5057111;28;19929;-53
2024/03/30 06:48:15;;;;;;;;;;;;;;;;;;5056173;28;20292;-53
2024/03/30 06:50:41;;;;;;;;;;;;;;;;;;5067870;28;20024;-53
2024/03/30 06:53:07;;;;;;;;;;;;;;;;;;5082249;28;19940;-53
2024/03/30 06:55:33;;;;;;;;;;;;;;;;;;5078989;28;19968;-52
2024/03/30 06:57:59;;;;;;;;;;;;;;;;;;5076673;28;20047;-53
2024/03/30 07:00:25;;;;;;;;;;;;;;;;;;5075372;28;19955;-54
2024/03/30 07:02:51;;;;;;;;;;;;;;;;;;5075423;28;19993;-54
2024/03/30 07:05:17;;;;;;;;;;;;;;;;;;5082646;28;20395;-53
2024/03/30 07:07:43;;;;;;;;;;;;;;;;;;5080729;28;20009;-52
2024/03/30 07:10:08;;;;;;;;;;;;;;;;;;5078732;28;19952;-53
2024/03/30 07:12:37;;;;;;;;;;;;;;;;;;5080608;28;19993;-53
2024/03/30 07:15:03;;;;;;;;;;;;;;;;;;5077064;28;19920;-53
2024/03/30 07:17:29;;;;;;;;;;;;;;;;;;5073889;28;20389;-52
2024/03/30 07:19:54;;;;;;;;;;;;;;;;;;5077271;28;20011;-53
2024/03/30 07:22:20;;;;;;;;;;;;;;;;;;5087089;28;19964;-53
2024/03/30 07:24:46;;;;;;;;;;;;;;;;;;5080436;28;20332;-53
2024/03/30 07:27:12;;;;;;;;;;;;;;;;;;5083590;28;20371;-52
2024/03/30 07:29:38;;;;;;;;;;;;;;;;;;5085782;28;19963;-53
2024/03/30 07:32:04;;;;;;;;;;;;;;;;;;5084251;28;19971;-52
2024/03/30 07:34:30;;;;;;;;;;;;;;;;;;5085642;28;19956;-53
2024/03/30 07:36:56;;;;;;;;;;;;;;;;;;5082057;28;19955;-53
2024/03/30 07:39:22;;;;;;;;;;;;;;;;;;5085250;28;19951;-53
2024/03/30 07:41:48;;;;;;;;;;;;;;;;;;5080884;28;19944;-53
2024/03/30 07:44:14;;;;;;;;;;;;;;;;;;5084449;28;19975;-52
2024/03/30 07:46:40;;;;;;;;;;;;;;;;;;5082756;28;19966;-53
2024/03/30 07:49:06;;;;;;;;;;;;;;;;;;5084139;28;19942;-52
2024/03/30 07:51:32;;;;;;;;;;;;;;;;;;5080995;28;20330;-52
2024/03/30 07:53:57;;;;;;;;;;;;;;;;;;5081452;28;20022;-52
2024/03/30 07:56:23;;;;;;;;;;;;;;;;;;5086230;28;19969;-53
2024/03/30 07:58:49;;;;;;;;;;;;;;;;;;5082532;28;20456;-52
2024/03/30 08:01:15;;;;;;;;;;;;;;;;;;5081603;28;20399;-52
2024/03/30 08:03:41;;;;;;;;;;;;;;;;;;5084400;28;20315;-52
2024/03/30 08:06:09;;;;;;;;;;;;;;;;;;5083540;28;19959;-52
2024/03/30 08:08:35;;;;;;;;;;;;;;;;;;5080519;28;19943;-52
2024/03/30 08:11:01;;;;;;;;;;;;;;;;;;5083244;28;19944;-52
2024/03/30 08:13:27;;;;;;;;;;;;;;;;;;5086273;28;20721;-52
2024/03/30 08:15:53;;;;;;;;;;;;;;;;;;5079769;28;19918;-53
2024/03/30 08:18:19;;;;;;;;;;;;;;;;;;5082790;28;19971;-52
2024/03/30 08:20:45;;;;;;;;;;;;;;;;;;5084530;28;19964;-52
2024/03/30 08:23:11;;;;;;;;;;;;;;;;;;5081593;28;19967;-50
2024/03/30 08:25:37;;;;;;;;;;;;;;;;;;5080472;28;20394;-50
2024/03/30 08:28:03;;;;;;;;;;;;;;;;;;5083423;28;20382;-50
2024/03/30 08:30:29;;;;;;;;;;;;;;;;;;5082448;28;19916;-50
2024/03/30 08:32:55;;;;;;;;;;;;;;;;;;5081120;28;20022;-50
2024/03/30 08:35:21;;;;;;;;;;;;;;;;;;5082410;28;19920;-50
2024/03/30 08:37:47;;;;;;;;;;;;;;;;;;5088752;28;20069;-50
2024/03/30 08:40:13;;;;;;;;;;;;;;;;;;5083383;28;19987;-50
2024/03/30 08:42:39;;;;;;;;;;;;;;;;;;5079170;28;19966;-50
2024/03/30 08:45:05;;;;;;;;;;;;;;;;;;5082689;28;20387;-52
2024/03/30 08:47:32;;;;;;;;;;;;;;;;;;5083493;28;19912;-51
2024/03/30 08:49:58;;;;;;;;;;;;;;;;;;5083837;28;19923;-52
2024/03/30 08:52:24;;;;;;;;;;;;;;;;;;5078548;28;19944;-51
2024/03/30 08:54:50;;;;;;;;;;;;;;;;;;5075788;28;19964;-52
2024/03/30 08:57:16;;;;;;;;;;;;;;;;;;5079099;28;20371;-52
2024/03/30 08:59:42;;;;;;;;;;;;;;;;;;5082484;28;19948;-50
2024/03/30 09:02:08;;;;;;;;;;;;;;;;;;5085777;28;19959;-51
2024/03/30 09:04:34;;;;;;;;;;;;;;;;;;5087663;28;19955;-51
2024/03/30 09:07:01;;;;;;;;;;;;;;;;;;5079594;28;20065;-52
2024/03/30 09:09:28;;;;;;;;;;;;;;;;;;5080067;28;19912;-51
2024/03/30 09:11:56;;;;;;;;;;;;;;;;;;5076557;28;19944;-51
2024/03/30 09:14:22;;;;;;;;;;;;;;;;;;5083433;28;19916;-51
2024/03/30 09:16:49;;;;;;;;;;;;;;;;;;5080286;28;19920;-51
2024/03/30 09:19:15;;;;;;;;;;;;;;;;;;5081042;28;20417;-51
2024/03/30 09:21:43;;;;;;;;;;;;;;;;;;5078290;28;19916;-51
2024/03/30 09:24:09;;;;;;;;;;;;;;;;;;5093924;27;19985;-52
2024/03/30 09:26:35;;;;;;;;;;;;;;;;;;5083697;28;20015;-52
2024/03/30 09:29:01;;;;;;;;;;;;;;;;;;5082481;28;20031;-51
2024/03/30 09:31:27;;;;;;;;;;;;;;;;;;5081627;28;21470;-50
2024/03/30 09:33:53;;;;;;;;;;;;;;;;;;5086262;28;19958;-50
2024/03/30 09:36:19;;;;;;;;;;;;;;;;;;5084267;28;19959;-51
2024/03/30 09:38:45;;;;;;;;;;;;;;;;;;5081491;28;20431;-50
2024/03/30 09:41:11;;;;;;;;;;;;;;;;;;5083702;28;19966;-50
2024/03/30 09:43:37;;;;;;;;;;;;;;;;;;5080864;28;19959;-51
2024/03/30 09:46:03;;;;;;;;;;;;;;;;;;5077340;28;19947;-51
2024/03/30 09:48:31;;;;;;;;;;;;;;;;;;5076900;28;20459;-51
2024/03/30 09:50:57;;;;;;;;;;;;;;;;;;5083031;28;20562;-51
2024/03/30 09:53:23;;;;;;;;;;;;;;;;;;5084119;28;19951;-51
2024/03/30 09:55:49;;;;;;;;;;;;;;;;;;5082145;28;19963;-50
2024/03/30 09:58:15;;;;;;;;;;;;;;;;;;5080275;28;19967;-50
2024/03/30 10:00:41;;;;;;;;;;;;;;;;;;5082082;28;20025;-52
2024/03/30 10:03:07;;;;;;;;;;;;;;;;;;5078707;28;19947;-51
2024/03/30 10:05:33;;;;;;;;;;;;;;;;;;5077849;28;19963;-52
2024/03/30 10:07:59;;;;;;;;;;;;;;;;;;5084705;28;20344;-51
2024/03/30 10:10:25;;;;;;;;;;;;;;;;;;5081704;28;19920;-51
2024/03/30 10:12:51;;;;;;;;;;;;;;;;;;5077795;28;20019;-50
2024/03/30 10:15:16;;;;;;;;;;;;;;;;;;5080845;28;19970;-51
2024/03/30 10:17:42;;;;;;;;;;;;;;;;;;5081216;28;20008;-51
2024/03/30 10:20:08;;;;;;;;;;;;;;;;;;5081875;28;19947;-51
2024/03/30 10:22:34;;;;;;;;;;;;;;;;;;5081446;28;19963;-52
2024/03/30 10:25:00;;;;;;;;;;;;;;;;;;5074445;28;20010;-51
2024/03/30 10:27:26;;;;;;;;;;;;;;;;;;5075226;28;19990;-51
2024/03/30 10:29:52;;;;;;;;;;;;;;;;;;5082905;28;19920;-51
2024/03/30 10:32:18;;;;;;;;;;;;;;;;;;5083986;28;20340;-50
2024/03/30 10:34:44;;;;;;;;;;;;;;;;;;5079157;28;20319;-52
2024/03/30 10:37:10;;;;;;;;;;;;;;;;;;5081671;28;20372;-52
2024/03/30 10:39:36;;;;;;;;;;;;;;;;;;5079957;28;19916;-51
2024/03/30 10:42:02;;;;;;;;;;;;;;;;;;5077890;28;19916;-51
2024/03/30 10:44:28;;;;;;;;;;;;;;;;;;5082832;28;19982;-51
2024/03/30 10:46:54;;;;;;;;;;;;;;;;;;5082673;28;19912;-51
2024/03/30 10:49:20;;;;;;;;;;;;;;;;;;5078094;28;19955;-51
2024/03/30 10:51:46;;;;;;;;;;;;;;;;;;5075140;28;19947;-51
2024/03/30 10:54:19;;;;;;;;;;;;;;;;;;5081911;28;19917;-51
2024/03/30 10:56:44;;;;;;;;;;;;;;;;;;5084396;28;19920;-51
2024/03/30 10:59:10;;;;;;;;;;;;;;;;;;5089045;28;20340;-50
2024/03/30 11:01:36;;;;;;;;;;;;;;;;;;5084277;28;20446;-50
2024/03/30 11:04:02;;;;;;;;;;;;;;;;;;5083956;28;20028;-52
2024/03/30 11:06:28;;;;;;;;;;;;;;;;;;5082542;28;19947;-51
2024/03/30 11:08:54;;;;;;;;;;;;;;;;;;5085760;28;19955;-51
2024/03/30 11:11:20;;;;;;;;;;;;;;;;;;5084928;28;19978;-51
2024/03/30 11:13:46;;;;;;;;;;;;;;;;;;5083101;28;19954;-50
2024/03/30 11:16:12;;;;;;;;;;;;;;;;;;5089087;28;20332;-50
2024/03/30 11:18:38;;;;;;;;;;;;;;;;;;5082841;28;20371;-50
2024/03/30 11:21:04;;;;;;;;;;;;;;;;;;5085100;28;20322;-50
2024/03/30 11:23:30;;;;;;;;;;;;;;;;;;5082646;28;19952;-50
2024/03/30 11:25:56;;;;;;;;;;;;;;;;;;5083694;28;20074;-50
2024/03/30 11:28:21;;;;;;;;;;;;;;;;;;5088121;28;19950;-51
2024/03/30 11:30:47;;;;;;;;;;;;;;;;;;5082150;28;19916;-51
2024/03/30 11:33:13;;;;;;;;;;;;;;;;;;5091045;28;20383;-50
2024/03/30 11:35:39;;;;;;;;;;;;;;;;;;5080909;28;20522;-50
2024/03/30 11:38:06;;;;;;;;;;;;;;;;;;5083253;28;19947;-51
2024/03/30 11:40:32;;;;;;;;;;;;;;;;;;5083462;28;20224;-50
2024/03/30 11:42:58;;;;;;;;;;;;;;;;;;5082384;28;19959;-50
2024/03/30 11:45:24;;;;;;;;;;;;;;;;;;5083665;28;19925;-50
2024/03/30 11:47:50;;;;;;;;;;;;;;;;;;5083018;28;20441;-50
2024/03/30 11:50:16;;;;;;;;;;;;;;;;;;5081561;28;20359;-51
2024/03/30 11:52:42;;;;;;;;;;;;;;;;;;5082117;28;19958;-51
2024/03/30 11:55:07;;;;;;;;;;;;;;;;;;5082551;28;19963;-51
2024/03/30 11:57:33;;;;;;;;;;;;;;;;;;5084326;28;19952;-51
2024/03/30 11:59:59;;;;;;;;;;;;;;;;;;5085131;28;19952;-51
2024/03/30 12:02:25;;;;;;;;;;;;;;;;;;5087218;28;20001;-50
2024/03/30 12:04:51;;;;;;;;;;;;;;;;;;5078338;28;20465;-50
2024/03/30 12:07:17;;;;;;;;;;;;;;;;;;5081468;28;19924;-51
2024/03/30 12:09:43;;;;;;;;;;;;;;;;;;5082967;28;19943;-51
2024/03/30 12:12:09;;;;;;;;;;;;;;;;;;5078753;28;19917;-50
2024/03/30 12:14:35;;;;;;;;;;;;;;;;;;5086223;28;20424;-50
2024/03/30 12:17:01;;;;;;;;;;;;;;;;;;5080166;28;19993;-50
2024/03/30 12:19:30;;;;;;;;;;;;;;;;;;5078492;28;19964;-51
2024/03/30 12:21:56;;;;;;;;;;;;;;;;;;5082565;28;19912;-53
2024/03/30 12:24:22;;;;;;;;;;;;;;;;;;5082336;28;19974;-53
2024/03/30 12:26:48;;;;;;;;;;;;;;;;;;5084490;28;19954;-53
2024/03/30 12:29:14;;;;;;;;;;;;;;;;;;5083666;28;19962;-52
2024/03/30 12:31:40;;;;;;;;;;;;;;;;;;5085839;28;19951;-52
2024/03/30 12:34:06;;;;;;;;;;;;;;;;;;5085715;28;20705;-54
2024/03/30 12:36:32;;;;;;;;;;;;;;;;;;5083000;28;20030;-53
2024/03/30 12:38:57;;;;;;;;;;;;;;;;;;5082851;28;20370;-51
2024/03/30 12:41:23;;;;;;;;;;;;;;;;;;5082641;28;20695;-51
2024/03/30 12:43:49;;;;;;;;;;;;;;;;;;5084531;28;19920;-51
2024/03/30 12:46:15;;;;;;;;;;;;;;;;;;5087667;28;20022;-52
2024/03/30 12:48:41;;;;;;;;;;;;;;;;;;5077751;28;19935;-52
2024/03/30 12:51:07;;;;;;;;;;;;;;;;;;5087851;28;20354;-52
2024/03/30 12:53:33;;;;;;;;;;;;;;;;;;5083491;28;20011;-51
2024/03/30 12:55:59;;;;;;;;;;;;;;;;;;5083344;28;19960;-53
2024/03/30 12:58:25;;;;;;;;;;;;;;;;;;5080177;28;20290;-52
2024/03/30 13:00:51;;;;;;;;;;;;;;;;;;5080017;28;19966;-53
2024/03/30 13:03:17;;;;;;;;;;;;;;;;;;5074642;28;19970;-52
2024/03/30 13:05:43;;;;;;;;;;;;;;;;;;5078163;28;19959;-53
2024/03/30 13:08:10;;;;;;;;;;;;;;;;;;5078591;28;19987;-53
2024/03/30 13:10:40;;;;;;;;;;;;;;;;;;5076166;28;19920;-51
2024/03/30 13:13:06;;;;;;;;;;;;;;;;;;5083857;28;20264;-51
2024/03/30 13:15:32;;;;;;;;;;;;;;;;;;5082710;28;19971;-52
2024/03/30 13:17:58;;;;;;;;;;;;;;;;;;5085778;28;19947;-52
2024/03/30 13:20:29;;;;;;;;;;;;;;;;;;5082652;28;20527;-52
2024/03/30 13:22:55;;;;;;;;;;;;;;;;;;5081314;28;20316;-51
2024/03/30 13:25:21;;;;;;;;;;;;;;;;;;5080619;28;19978;-51
2024/03/30 13:27:47;;;;;;;;;;;;;;;;;;5083466;28;19960;-51
2024/03/30 13:30:13;;;;;;;;;;;;;;;;;;5078206;28;19959;-52
2024/03/30 13:32:40;;;;;;;;;;;;;;;;;;5082954;28;20029;-50
2024/03/30 13:35:07;;;;;;;;;;;;;;;;;;5083118;28;19920;-51
2024/03/30 13:37:33;;;;;;;;;;;;;;;;;;5087738;28;20260;-51
2024/03/30 13:39:59;;;;;;;;;;;;;;;;;;5088331;28;20023;-51
2024/03/30 13:42:25;;;;;;;;;;;;;;;;;;5083449;28;19920;-49
2024/03/30 13:44:51;;;;;;;;;;;;;;;;;;5083980;28;20335;-50
2024/03/30 13:47:17;;;;;;;;;;;;;;;;;;5086603;28;20324;-49
2024/03/30 13:49:43;;;;;;;;;;;;;;;;;;5089291;28;19951;-50
2024/03/30 13:52:09;;;;;;;;;;;;;;;;;;5075096;28;19971;-49
2024/03/30 13:54:36;;;;;;;;;;;;;;;;;;5077079;28;19927;-48
2024/03/30 13:57:03;;;;;;;;;;;;;;;;;;5083182;28;20444;-49
2024/03/30 13:59:29;;;;;;;;;;;;;;;;;;5086600;28;20259;-49
2024/03/30 14:01:55;;;;;;;;;;;;;;;;;;5084143;28;20143;-49
2024/03/30 14:04:20;;;;;;;;;;;;;;;;;;5079851;28;19934;-49
2024/03/30 14:06:46;;;;;;;;;;;;;;;;;;5083724;28;20007;-49
2024/03/30 14:09:13;;;;;;;;;;;;;;;;;;5079068;28;20005;-50
2024/03/30 14:11:38;;;;;;;;;;;;;;;;;;5085172;28;20489;-49
2024/03/30 14:14:04;;;;;;;;;;;;;;;;;;5081418;28;20432;-49
2024/03/30 14:16:30;;;;;;;;;;;;;;;;;;5086499;28;19954;-49
2024/03/30 14:18:56;;;;;;;;;;;;;;;;;;5088621;28;19955;-50
2024/03/30 14:21:22;;;;;;;;;;;;;;;;;;5079766;28;19968;-50
2024/03/30 14:23:48;;;;;;;;;;;;;;;;;;5076105;28;19951;-50
2024/03/30 14:26:14;;;;;;;;;;;;;;;;;;5087963;28;19916;-49
2024/03/30 14:28:40;;;;;;;;;;;;;;;;;;5084938;28;19947;-50
2024/03/30 14:31:06;;;;;;;;;;;;;;;;;;5081753;28;19962;-50
2024/03/30 14:33:32;;;;;;;;;;;;;;;;;;5091258;28;20271;-51
2024/03/30 14:35:58;;;;;;;;;;;;;;;;;;5086846;28;20446;-51
2024/03/30 14:38:25;;;;;;;;;;;;;;;;;;5086697;28;19916;-50
2024/03/30 14:40:51;;;;;;;;;;;;;;;;;;5083509;28;19920;-51
2024/03/30 14:43:17;;;;;;;;;;;;;;;;;;5085196;28;20463;-51
2024/03/30 14:45:43;;;;;;;;;;;;;;;;;;5086199;28;20442;-49
2024/03/30 14:48:09;;;;;;;;;;;;;;;;;;5083450;28;19955;-50
2024/03/30 14:50:35;;;;;;;;;;;;;;;;;;5088113;28;19951;-50
2024/03/30 14:53:01;;;;;;;;;;;;;;;;;;5086757;28;19935;-50
2024/03/30 14:55:26;;;;;;;;;;;;;;;;;;5087879;28;19990;-51
2024/03/30 14:57:52;;;;;;;;;;;;;;;;;;5083937;28;20778;-51
2024/03/30 15:00:18;;;;;;;;;;;;;;;;;;5085686;28;20352;-51
2024/03/30 15:02:44;;;;;;;;;;;;;;;;;;5088075;28;20352;-50
2024/03/30 15:05:11;;;;;;;;;;;;;;;;;;5085813;28;19997;-50
2024/03/30 15:07:37;;;;;;;;;;;;;;;;;;5082962;28;19961;-51
2024/03/30 15:10:03;;;;;;;;;;;;;;;;;;5087698;28;19920;-51
2024/03/30 15:12:29;;;;;;;;;;;;;;;;;;5088828;28;19976;-50
2024/03/30 15:14:56;;;;;;;;;;;;;;;;;;5083249;28;19960;-50
2024/03/30 15:17:22;;;;;;;;;;;;;;;;;;5087002;28;19950;-50
2024/03/30 15:19:48;;;;;;;;;;;;;;;;;;5081536;28;19943;-50
2024/03/30 15:22:14;;;;;;;;;;;;;;;;;;5087072;28;19935;-51
2024/03/30 15:24:40;;;;;;;;;;;;;;;;;;5086495;28;19985;-51
2024/03/30 15:27:05;;;;;;;;;;;;;;;;;;5087966;28;19951;-49
2024/03/30 15:29:39;;;;;;;;;;;;;;;;;;5086142;28;19974;-49
2024/03/30 15:32:15;;;;;;;;;;;;;;;;;;5088340;28;20585;-49
2024/03/30 15:34:41;;;;;;;;;;;;;;;;;;5088064;28;20734;-51
2024/03/30 15:37:07;;;;;;;;;;;;;;;;;;5088091;28;19963;-51
2024/03/30 15:39:33;;;;;;;;;;;;;;;;;;5086923;28;19912;-50
2024/03/30 15:41:59;;;;;;;;;;;;;;;;;;5078755;28;19920;-51
2024/03/30 15:44:25;;;;;;;;;;;;;;;;;;5084051;28;20426;-52
2024/03/30 15:46:53;;;;;;;;;;;;;;;;;;5088183;28;19955;-55
2024/03/30 15:49:18;;;;;;;;;;;;;;;;;;5088784;28;19919;-57
2024/03/30 15:51:44;;;;;;;;;;;;;;;;;;5090914;28;19982;-58
2024/03/30 15:54:10;;;;;;;;;;;;;;;;;;5091459;28;19952;-58
2024/03/30 15:56:36;;;;;;;;;;;;;;;;;;5091067;28;19943;-57
2024/03/30 15:59:02;;;;;;;;;;;;;;;;;;5089451;28;19926;-57
2024/03/30 16:01:28;;;;;;;;;;;;;;;;;;5089866;28;19973;-58
2024/03/30 16:03:54;;;;;;;;;;;;;;;;;;5090421;28;19951;-57
2024/03/30 16:06:20;;;;;;;;;;;;;;;;;;5100638;27;20017;-57
2024/03/30 16:08:46;;;;;;;;;;;;;;;;;;5085165;28;19987;-57
2024/03/30 16:11:12;;;;;;;;;;;;;;;;;;5089523;28;19955;-58
2024/03/30 16:13:38;;;;;;;;;;;;;;;;;;5087702;28;19982;-59
2024/03/30 16:16:04;;;;;;;;;;;;;;;;;;5085630;28;20279;-59
2024/03/30 16:18:30;;;;;;;;;;;;;;;;;;5086659;28;20391;-59
2024/03/30 16:20:59;;;;;;;;;;;;;;;;;;5087661;28;19960;-59
2024/03/30 16:23:25;;;;;;;;;;;;;;;;;;5090240;28;20009;-60
2024/03/30 16:25:51;;;;;;;;;;;;;;;;;;5087482;28;19986;-61
2024/03/30 16:28:17;;;;;;;;;;;;;;;;;;5089124;28;20379;-60
2024/03/30 16:30:43;;;;;;;;;;;;;;;;;;5087403;28;20346;-59
2024/03/30 16:33:09;;;;;;;;;;;;;;;;;;5090778;28;20355;-59
2024/03/30 16:35:35;;;;;;;;;;;;;;;;;;5090313;28;19951;-59
2024/03/30 16:38:01;;;;;;;;;;;;;;;;;;5090650;28;20344;-59
2024/03/30 16:40:27;;;;;;;;;;;;;;;;;;5088727;28;20063;-59
2024/03/30 16:42:53;;;;;;;;;;;;;;;;;;5089280;28;19916;-59
2024/03/30 16:45:19;;;;;;;;;;;;;;;;;;5087613;28;19958;-59